sensor_id;sensor_type;location;lat;lon;timestamp;pressure;altitude;pressure_sealevel;temperature;humidity
9059;BME280;4564;42.034;25.834;2023-04-22T00:01:25;99972.59;;;10.86;100.00
9059;BME280;4564;42.034;25.834;2023-04-22T00:03:51;99971.56;;;10.87;100.00
9059;BME280;4564;42.034;25.834;2023-04-22T00:06:18;99974.19;;;10.74;100.00
9059;BME280;4564;42.034;25.834;2023-04-22T00:08:45;99970.41;;;10.75;100.00
9059;BME280;4564;42.034;25.834;2023-04-22T00:11:13;99979.66;;;10.80;100.00
9059;BME280;4564;42.034;25.834;2023-04-22T00:13:40;99977.72;;;10.74;100.00
9059;BME280;4564;42.034;25.834;2023-04-22T00:16:07;99971.31;;;10.82;100.00
9059;BME280;4564;42.034;25.834;2023-04-22T00:18:33;99972.75;;;10.78;100.00
9059;BME280;4564;42.034;25.834;2023-04-22T00:21:00;99971.66;;;10.72;100.00
9059;BME280;4564;42.034;25.834;2023-04-22T00:23:27;99974.13;;;10.67;100.00
9059;BME280;4564;42.034;25.834;2023-04-22T00:25:53;99969.53;;;10.68;100.00
9059;BME280;4564;42.034;25.834;2023-04-22T00:28:21;99970.50;;;10.60;100.00
9059;BME280;4564;42.034;25.834;2023-04-22T00:30:48;99965.47;;;10.57;100.00
9059;BME280;4564;42.034;25.834;2023-04-22T00:33:15;99969.59;;;10.53;100.00
9059;BME280;4564;42.034;25.834;2023-04-22T00:35:41;99970.19;;;10.48;100.00
9059;BME280;4564;42.034;25.834;2023-04-22T00:38:08;99964.19;;;10.32;100.00
9059;BME280;4564;42.034;25.834;2023-04-22T00:40:35;99961.03;;;10.28;100.00
9059;BME280;4564;42.034;25.834;2023-04-22T00:43:02;99966.72;;;10.33;100.00
9059;BME280;4564;42.034;25.834;2023-04-22T00:45:30;99962.97;;;10.34;100.00
9059;BME280;4564;42.034;25.834;2023-04-22T00:47:57;99966.28;;;10.30;100.00
9059;BME280;4564;42.034;25.834;2023-04-22T00:50:23;99974.41;;;10.15;100.00
9059;BME280;4564;42.034;25.834;2023-04-22T00:52:50;99972.75;;;10.14;100.00
9059;BME280;4564;42.034;25.834;2023-04-22T00:55:16;99972.75;;;10.14;100.00
9059;BME280;4564;42.034;25.834;2023-04-22T00:57:43;99964.63;;;10.14;100.00
9059;BME280;4564;42.034;25.834;2023-04-22T01:00:10;99965.16;;;10.09;100.00
9059;BME280;4564;42.034;25.834;2023-04-22T01:02:38;99966.50;;;9.99;100.00
9059;BME280;4564;42.034;25.834;2023-04-22T01:05:05;99968.50;;;9.90;100.00
9059;BME280;4564;42.034;25.834;2023-04-22T01:07:33;99966.25;;;9.94;100.00
9059;BME280;4564;42.034;25.834;2023-04-22T01:10:00;99965.97;;;9.89;100.00
9059;BME280;4564;42.034;25.834;2023-04-22T01:12:27;99963.66;;;9.86;100.00
9059;BME280;4564;42.034;25.834;2023-04-22T01:14:54;99973.34;;;9.95;100.00
9059;BME280;4564;42.034;25.834;2023-04-22T01:17:20;99972.72;;;9.93;100.00
9059;BME280;4564;42.034;25.834;2023-04-22T01:19:50;99980.00;;;9.92;100.00
9059;BME280;4564;42.034;25.834;2023-04-22T01:22:17;99978.78;;;9.95;100.00
9059;BME280;4564;42.034;25.834;2023-04-22T01:24:45;99971.66;;;9.94;100.00
9059;BME280;4564;42.034;25.834;2023-04-22T01:27:12;99976.81;;;9.89;100.00
9059;BME280;4564;42.034;25.834;2023-04-22T01:29:39;99971.13;;;9.84;100.00
9059;BME280;4564;42.034;25.834;2023-04-22T01:32:05;99983.00;;;9.83;100.00
9059;BME280;4564;42.034;25.834;2023-04-22T01:34:32;99980.50;;;9.81;100.00
9059;BME280;4564;42.034;25.834;2023-04-22T01:36:59;99982.75;;;9.78;100.00
9059;BME280;4564;42.034;25.834;2023-04-22T01:39:25;99970.59;;;9.74;100.00
9059;BME280;4564;42.034;25.834;2023-04-22T01:41:53;99984.81;;;9.76;100.00
9059;BME280;4564;42.034;25.834;2023-04-22T01:44:20;99976.28;;;9.79;100.00
9059;BME280;4564;42.034;25.834;2023-04-22T01:46:47;99968.06;;;9.87;100.00
9059;BME280;4564;42.034;25.834;2023-04-22T01:49:14;99969.63;;;9.96;100.00
9059;BME280;4564;42.034;25.834;2023-04-22T01:51:40;99965.88;;;9.97;100.00
9059;BME280;4564;42.034;25.834;2023-04-22T01:54:07;99963.00;;;9.98;100.00
9059;BME280;4564;42.034;25.834;2023-04-22T01:56:35;99953.81;;;9.99;100.00
9059;BME280;4564;42.034;25.834;2023-04-22T01:59:04;99954.66;;;10.00;100.00
9059;BME280;4564;42.034;25.834;2023-04-22T02:01:31;99939.97;;;10.09;100.00
9059;BME280;4564;42.034;25.834;2023-04-22T02:03:57;99938.53;;;10.13;100.00
9059;BME280;4564;42.034;25.834;2023-04-22T02:06:24;99940.31;;;10.06;100.00
9059;BME280;4564;42.034;25.834;2023-04-22T02:08:51;99943.88;;;10.06;100.00
9059;BME280;4564;42.034;25.834;2023-04-22T02:11:18;99941.16;;;10.06;100.00
9059;BME280;4564;42.034;25.834;2023-04-22T02:13:45;99951.84;;;10.08;100.00
9059;BME280;4564;42.034;25.834;2023-04-22T02:16:13;99946.78;;;10.05;100.00
9059;BME280;4564;42.034;25.834;2023-04-22T02:18:42;99943.69;;;10.08;100.00
9059;BME280;4564;42.034;25.834;2023-04-22T02:21:08;99942.19;;;10.05;100.00
9059;BME280;4564;42.034;25.834;2023-04-22T02:23:35;99951.25;;;10.13;100.00
9059;BME280;4564;42.034;25.834;2023-04-22T02:26:02;99948.34;;;10.14;100.00
9059;BME280;4564;42.034;25.834;2023-04-22T02:28:28;99948.53;;;10.13;100.00
9059;BME280;4564;42.034;25.834;2023-04-22T02:30:55;99948.63;;;10.19;100.00
9059;BME280;4564;42.034;25.834;2023-04-22T02:33:23;99956.13;;;10.17;100.00
9059;BME280;4564;42.034;25.834;2023-04-22T02:35:49;99959.50;;;10.19;100.00
9059;BME280;4564;42.034;25.834;2023-04-22T02:38:16;99956.00;;;10.10;100.00
9059;BME280;4564;42.034;25.834;2023-04-22T02:40:42;99955.41;;;9.94;100.00
9059;BME280;4564;42.034;25.834;2023-04-22T02:43:09;99951.16;;;9.85;100.00
9059;BME280;4564;42.034;25.834;2023-04-22T02:45:36;99951.41;;;9.90;100.00
9059;BME280;4564;42.034;25.834;2023-04-22T02:48:03;99947.09;;;9.95;100.00
9059;BME280;4564;42.034;25.834;2023-04-22T02:50:31;99950.25;;;9.99;100.00
9059;BME280;4564;42.034;25.834;2023-04-22T02:52:57;99954.28;;;10.03;100.00
9059;BME280;4564;42.034;25.834;2023-04-22T02:55:24;99954.97;;;9.90;100.00
9059;BME280;4564;42.034;25.834;2023-04-22T02:57:50;99959.41;;;9.77;100.00
9059;BME280;4564;42.034;25.834;2023-04-22T03:00:17;99966.78;;;9.68;100.00
9059;BME280;4564;42.034;25.834;2023-04-22T03:02:44;99969.03;;;9.64;100.00
9059;BME280;4564;42.034;25.834;2023-04-22T03:05:10;99974.47;;;9.64;100.00
9059;BME280;4564;42.034;25.834;2023-04-22T03:07:38;99971.81;;;9.86;100.00
9059;BME280;4564;42.034;25.834;2023-04-22T03:10:05;99974.19;;;9.95;100.00
9059;BME280;4564;42.034;25.834;2023-04-22T03:12:32;99976.16;;;10.01;100.00
9059;BME280;4564;42.034;25.834;2023-04-22T03:14:59;99973.25;;;10.03;100.00
9059;BME280;4564;42.034;25.834;2023-04-22T03:17:25;99971.44;;;10.10;100.00
9059;BME280;4564;42.034;25.834;2023-04-22T03:19:52;99976.00;;;10.09;100.00
9059;BME280;4564;42.034;25.834;2023-04-22T03:22:18;99976.66;;;10.11;100.00
9059;BME280;4564;42.034;25.834;2023-04-22T03:24:47;99973.13;;;10.11;100.00
9059;BME280;4564;42.034;25.834;2023-04-22T03:27:13;99971.91;;;10.14;100.00
9059;BME280;4564;42.034;25.834;2023-04-22T03:29:40;99983.91;;;10.19;100.00
9059;BME280;4564;42.034;25.834;2023-04-22T03:32:06;99992.06;;;10.26;100.00
9059;BME280;4564;42.034;25.834;2023-04-22T03:34:33;99993.47;;;10.36;100.00
9059;BME280;4564;42.034;25.834;2023-04-22T03:36:59;99993.72;;;10.41;100.00
9059;BME280;4564;42.034;25.834;2023-04-22T03:39:26;99999.78;;;10.43;100.00
9059;BME280;4564;42.034;25.834;2023-04-22T03:41:54;99996.03;;;10.44;100.00
9059;BME280;4564;42.034;25.834;2023-04-22T03:44:20;100004.06;;;10.52;100.00
9059;BME280;4564;42.034;25.834;2023-04-22T03:46:47;100010.00;;;10.63;100.00
9059;BME280;4564;42.034;25.834;2023-04-22T03:49:14;100013.84;;;10.53;100.00
9059;BME280;4564;42.034;25.834;2023-04-22T03:51:40;100005.59;;;10.62;100.00
9059;BME280;4564;42.034;25.834;2023-04-22T03:54:07;100012.97;;;10.68;100.00
9059;BME280;4564;42.034;25.834;2023-04-22T03:56:34;100017.91;;;10.64;100.00
9059;BME280;4564;42.034;25.834;2023-04-22T03:59:02;100023.91;;;10.81;100.00
9059;BME280;4564;42.034;25.834;2023-04-22T04:01:28;100020.84;;;10.84;100.00
9059;BME280;4564;42.034;25.834;2023-04-22T04:03:55;100030.91;;;10.90;100.00
9059;BME280;4564;42.034;25.834;2023-04-22T04:06:22;100020.31;;;11.02;100.00
9059;BME280;4564;42.034;25.834;2023-04-22T04:08:48;100027.06;;;11.06;100.00
9059;BME280;4564;42.034;25.834;2023-04-22T04:11:15;100030.66;;;11.13;100.00
9059;BME280;4564;42.034;25.834;2023-04-22T04:13:42;100028.41;;;11.16;100.00
9059;BME280;4564;42.034;25.834;2023-04-22T04:16:10;100030.28;;;11.16;100.00
9059;BME280;4564;42.034;25.834;2023-04-22T04:18:36;99984.69;;;10.83;100.00
9059;BME280;4564;42.034;25.834;2023-04-22T04:21:03;100038.06;;;11.25;100.00
9059;BME280;4564;42.034;25.834;2023-04-22T04:23:30;100039.63;;;11.41;100.00
9059;BME280;4564;42.034;25.834;2023-04-22T04:25:57;100037.34;;;11.45;100.00
9059;BME280;4564;42.034;25.834;2023-04-22T04:28:25;100040.06;;;11.45;100.00
9059;BME280;4564;42.034;25.834;2023-04-22T04:30:53;100043.69;;;11.52;100.00
9059;BME280;4564;42.034;25.834;2023-04-22T04:33:21;100048.91;;;11.53;100.00
9059;BME280;4564;42.034;25.834;2023-04-22T04:35:48;100046.63;;;11.57;100.00
9059;BME280;4564;42.034;25.834;2023-04-22T04:38:15;100055.81;;;11.56;100.00
9059;BME280;4564;42.034;25.834;2023-04-22T04:40:42;100053.75;;;11.58;100.00
9059;BME280;4564;42.034;25.834;2023-04-22T04:43:09;100055.44;;;11.59;100.00
9059;BME280;4564;42.034;25.834;2023-04-22T04:45:37;100055.81;;;11.56;100.00
9059;BME280;4564;42.034;25.834;2023-04-22T04:48:04;100057.13;;;11.60;100.00
9059;BME280;4564;42.034;25.834;2023-04-22T04:50:33;100055.88;;;11.62;100.00
9059;BME280;4564;42.034;25.834;2023-04-22T04:52:59;100056.47;;;11.86;100.00
9059;BME280;4564;42.034;25.834;2023-04-22T04:55:26;100065.69;;;11.91;100.00
9059;BME280;4564;42.034;25.834;2023-04-22T04:57:53;100067.88;;;12.09;100.00
9059;BME280;4564;42.034;25.834;2023-04-22T05:00:19;100062.59;;;12.01;100.00
9059;BME280;4564;42.034;25.834;2023-04-22T05:02:46;100064.56;;;11.79;100.00
9059;BME280;4564;42.034;25.834;2023-04-22T05:05:13;100057.56;;;12.04;100.00
9059;BME280;4564;42.034;25.834;2023-04-22T05:07:41;100067.94;;;12.29;100.00
9059;BME280;4564;42.034;25.834;2023-04-22T05:10:08;100065.66;;;12.39;100.00
9059;BME280;4564;42.034;25.834;2023-04-22T05:12:35;100069.19;;;12.33;100.00
9059;BME280;4564;42.034;25.834;2023-04-22T05:15:01;100083.22;;;12.30;100.00
9059;BME280;4564;42.034;25.834;2023-04-22T05:17:28;100079.63;;;12.23;100.00
9059;BME280;4564;42.034;25.834;2023-04-22T05:19:55;100077.38;;;12.33;100.00
9059;BME280;4564;42.034;25.834;2023-04-22T05:22:21;100067.16;;;12.48;100.00
9059;BME280;4564;42.034;25.834;2023-04-22T05:24:49;100082.44;;;12.49;100.00
9059;BME280;4564;42.034;25.834;2023-04-22T05:27:16;100078.03;;;12.41;100.00
9059;BME280;4564;42.034;25.834;2023-04-22T05:29:42;100076.34;;;12.40;100.00
9059;BME280;4564;42.034;25.834;2023-04-22T05:32:09;100076.38;;;12.53;100.00
9059;BME280;4564;42.034;25.834;2023-04-22T05:34:36;100075.97;;;12.50;100.00
9059;BME280;4564;42.034;25.834;2023-04-22T05:37:02;100070.13;;;12.59;100.00
9059;BME280;4564;42.034;25.834;2023-04-22T05:39:29;100081.84;;;12.60;100.00
9059;BME280;4564;42.034;25.834;2023-04-22T05:41:57;100086.25;;;12.61;100.00
9059;BME280;4564;42.034;25.834;2023-04-22T05:44:24;100084.41;;;12.68;100.00
9059;BME280;4564;42.034;25.834;2023-04-22T05:46:50;100078.09;;;12.61;100.00
9059;BME280;4564;42.034;25.834;2023-04-22T05:49:17;100077.44;;;12.59;100.00
9059;BME280;4564;42.034;25.834;2023-04-22T05:51:44;100083.72;;;12.59;100.00
9059;BME280;4564;42.034;25.834;2023-04-22T05:54:10;100074.31;;;12.62;100.00
9059;BME280;4564;42.034;25.834;2023-04-22T05:56:37;100078.13;;;12.81;100.00
9059;BME280;4564;42.034;25.834;2023-04-22T05:59:05;100079.81;;;13.01;100.00
9059;BME280;4564;42.034;25.834;2023-04-22T06:01:32;100085.75;;;13.12;100.00
9059;BME280;4564;42.034;25.834;2023-04-22T06:03:58;100084.44;;;13.08;100.00
9059;BME280;4564;42.034;25.834;2023-04-22T06:06:25;100086.56;;;13.45;100.00
9059;BME280;4564;42.034;25.834;2023-04-22T06:08:51;100088.63;;;13.56;100.00
9059;BME280;4564;42.034;25.834;2023-04-22T06:11:18;100078.13;;;13.66;100.00
9059;BME280;4564;42.034;25.834;2023-04-22T06:13:45;100093.66;;;13.66;100.00
9059;BME280;4564;42.034;25.834;2023-04-22T06:16:13;100086.97;;;13.55;100.00
9059;BME280;4564;42.034;25.834;2023-04-22T06:18:40;100086.75;;;13.11;100.00
9059;BME280;4564;42.034;25.834;2023-04-22T06:21:07;100084.88;;;13.18;100.00
9059;BME280;4564;42.034;25.834;2023-04-22T06:23:34;100084.47;;;13.40;100.00
9059;BME280;4564;42.034;25.834;2023-04-22T06:26:00;100099.34;;;13.64;100.00
9059;BME280;4564;42.034;25.834;2023-04-22T06:28:27;100098.25;;;13.85;100.00
9059;BME280;4564;42.034;25.834;2023-04-22T06:30:54;100098.81;;;14.07;100.00
9059;BME280;4564;42.034;25.834;2023-04-22T06:33:22;100092.50;;;14.13;100.00
9059;BME280;4564;42.034;25.834;2023-04-22T06:35:48;100105.63;;;14.42;100.00
9059;BME280;4564;42.034;25.834;2023-04-22T06:38:15;100106.94;;;15.09;98.88
9059;BME280;4564;42.034;25.834;2023-04-22T06:40:41;100104.50;;;15.50;95.21
9059;BME280;4564;42.034;25.834;2023-04-22T06:43:08;100103.91;;;15.17;94.19
9059;BME280;4564;42.034;25.834;2023-04-22T06:45:34;100100.09;;;15.25;94.39
9059;BME280;4564;42.034;25.834;2023-04-22T06:48:01;100111.22;;;15.23;93.99
9059;BME280;4564;42.034;25.834;2023-04-22T06:50:29;100108.19;;;15.06;95.55
9059;BME280;4564;42.034;25.834;2023-04-22T06:52:56;100108.34;;;14.87;95.01
9059;BME280;4564;42.034;25.834;2023-04-22T06:55:22;100117.69;;;14.73;96.37
9059;BME280;4564;42.034;25.834;2023-04-22T06:57:49;100116.88;;;14.65;97.90
9059;BME280;4564;42.034;25.834;2023-04-22T07:00:16;100105.38;;;14.95;96.48
9059;BME280;4564;42.034;25.834;2023-04-22T07:02:42;100115.66;;;15.24;95.81
9059;BME280;4564;42.034;25.834;2023-04-22T07:05:09;100111.09;;;15.43;95.32
9059;BME280;4564;42.034;25.834;2023-04-22T07:07:37;100114.94;;;15.85;94.07
9059;BME280;4564;42.034;25.834;2023-04-22T07:10:04;100128.63;;;16.58;91.35
9059;BME280;4564;42.034;25.834;2023-04-22T07:12:31;100125.88;;;17.06;87.63
9059;BME280;4564;42.034;25.834;2023-04-22T07:14:57;100133.06;;;17.83;84.30
9059;BME280;4564;42.034;25.834;2023-04-22T07:17:24;100130.44;;;17.88;83.14
9059;BME280;4564;42.034;25.834;2023-04-22T07:19:51;100140.19;;;18.54;82.17
9059;BME280;4564;42.034;25.834;2023-04-22T07:22:17;100136.00;;;19.87;78.94
9059;BME280;4564;42.034;25.834;2023-04-22T07:24:45;100134.69;;;20.44;73.35
9059;BME280;4564;42.034;25.834;2023-04-22T07:27:12;100143.16;;;20.38;73.36
9059;BME280;4564;42.034;25.834;2023-04-22T07:29:38;100141.88;;;21.74;70.89
9059;BME280;4564;42.034;25.834;2023-04-22T07:32:05;100131.38;;;23.63;64.50
9059;BME280;4564;42.034;25.834;2023-04-22T07:34:31;100141.09;;;24.86;59.17
9059;BME280;4564;42.034;25.834;2023-04-22T07:36:58;100134.03;;;26.15;54.63
9059;BME280;4564;42.034;25.834;2023-04-22T07:39:25;100131.19;;;26.20;54.51
9059;BME280;4564;42.034;25.834;2023-04-22T07:41:53;100139.16;;;26.03;53.91
9059;BME280;4564;42.034;25.834;2023-04-22T07:44:20;100145.91;;;26.73;52.26
9059;BME280;4564;42.034;25.834;2023-04-22T07:46:47;100150.38;;;27.36;49.33
9059;BME280;4564;42.034;25.834;2023-04-22T07:49:14;100141.56;;;26.15;51.69
9059;BME280;4564;42.034;25.834;2023-04-22T07:51:41;100143.53;;;23.93;57.23
9059;BME280;4564;42.034;25.834;2023-04-22T07:54:08;100136.34;;;23.56;58.90
9059;BME280;4564;42.034;25.834;2023-04-22T07:56:35;100141.28;;;23.39;60.91
9059;BME280;4564;42.034;25.834;2023-04-22T07:59:03;100139.09;;;23.36;60.36
9059;BME280;4564;42.034;25.834;2023-04-22T08:01:30;100147.38;;;23.21;59.45
9059;BME280;4564;42.034;25.834;2023-04-22T08:03:57;100143.34;;;22.71;61.38
9059;BME280;4564;42.034;25.834;2023-04-22T08:06:23;100139.06;;;22.48;61.19
9059;BME280;4564;42.034;25.834;2023-04-22T08:08:50;100142.75;;;22.69;60.13
9059;BME280;4564;42.034;25.834;2023-04-22T08:11:16;100137.59;;;22.31;60.56
9059;BME280;4564;42.034;25.834;2023-04-22T08:13:43;100137.22;;;21.80;64.15
9059;BME280;4564;42.034;25.834;2023-04-22T08:16:11;100135.63;;;20.99;65.66
9059;BME280;4564;42.034;25.834;2023-04-22T08:18:38;100135.47;;;20.62;67.56
9059;BME280;4564;42.034;25.834;2023-04-22T08:21:05;100133.66;;;20.72;66.52
9059;BME280;4564;42.034;25.834;2023-04-22T08:23:31;100134.63;;;20.61;66.21
9059;BME280;4564;42.034;25.834;2023-04-22T08:26:00;100140.97;;;20.62;65.32
9059;BME280;4564;42.034;25.834;2023-04-22T08:28:26;100131.94;;;20.44;66.81
9059;BME280;4564;42.034;25.834;2023-04-22T08:30:53;100131.63;;;20.24;67.75
9059;BME280;4564;42.034;25.834;2023-04-22T08:33:21;100126.09;;;20.02;67.92
9059;BME280;4564;42.034;25.834;2023-04-22T08:35:47;100122.44;;;19.97;69.61
9059;BME280;4564;42.034;25.834;2023-04-22T08:38:14;100115.09;;;19.86;70.67
9059;BME280;4564;42.034;25.834;2023-04-22T08:40:41;100118.09;;;19.67;70.16
9059;BME280;4564;42.034;25.834;2023-04-22T08:43:07;100102.16;;;19.36;71.72
9059;BME280;4564;42.034;25.834;2023-04-22T08:45:36;100105.78;;;19.53;70.97
9059;BME280;4564;42.034;25.834;2023-04-22T08:48:03;100109.75;;;19.62;67.72
9059;BME280;4564;42.034;25.834;2023-04-22T08:50:32;100100.28;;;19.25;66.83
9059;BME280;4564;42.034;25.834;2023-04-22T08:52:59;100103.03;;;19.53;63.58
9059;BME280;4564;42.034;25.834;2023-04-22T08:55:26;100093.53;;;19.33;65.18
9059;BME280;4564;42.034;25.834;2023-04-22T08:57:52;100096.94;;;19.23;65.55
9059;BME280;4564;42.034;25.834;2023-04-22T09:00:19;100099.22;;;19.26;63.80
9059;BME280;4564;42.034;25.834;2023-04-22T09:02:46;100096.78;;;19.29;67.34
9059;BME280;4564;42.034;25.834;2023-04-22T09:05:14;100099.38;;;19.36;63.81
9059;BME280;4564;42.034;25.834;2023-04-22T09:07:42;100096.03;;;19.34;64.70
9059;BME280;4564;42.034;25.834;2023-04-22T09:10:09;100089.06;;;19.26;65.03
9059;BME280;4564;42.034;25.834;2023-04-22T09:12:37;100098.03;;;19.05;66.79
9059;BME280;4564;42.034;25.834;2023-04-22T09:15:05;100092.34;;;19.12;67.79
9059;BME280;4564;42.034;25.834;2023-04-22T09:17:33;100096.91;;;19.06;66.74
9059;BME280;4564;42.034;25.834;2023-04-22T09:20:02;100083.53;;;19.10;69.74
9059;BME280;4564;42.034;25.834;2023-04-22T09:22:36;100086.03;;;19.28;67.61
9059;BME280;4564;42.034;25.834;2023-04-22T09:25:04;100090.56;;;19.51;66.02
9059;BME280;4564;42.034;25.834;2023-04-22T09:27:31;100083.38;;;19.66;65.78
9059;BME280;4564;42.034;25.834;2023-04-22T09:30:00;100088.22;;;19.43;65.78
9059;BME280;4564;42.034;25.834;2023-04-22T09:32:27;100079.59;;;19.39;67.45
9059;BME280;4564;42.034;25.834;2023-04-22T09:34:53;100079.78;;;19.33;67.68
9059;BME280;4564;42.034;25.834;2023-04-22T09:37:22;100076.81;;;19.06;68.91
9059;BME280;4564;42.034;25.834;2023-04-22T09:39:49;100073.59;;;19.09;70.69
9059;BME280;4564;42.034;25.834;2023-04-22T09:42:18;100072.28;;;19.28;71.71
9059;BME280;4564;42.034;25.834;2023-04-22T09:44:45;100071.50;;;19.33;68.33
9059;BME280;4564;42.034;25.834;2023-04-22T09:47:12;100065.44;;;19.14;66.76
9059;BME280;4564;42.034;25.834;2023-04-22T09:49:39;100057.41;;;18.96;67.73
9059;BME280;4564;42.034;25.834;2023-04-22T09:52:11;100058.59;;;19.00;66.81
9059;BME280;4564;42.034;25.834;2023-04-22T09:54:47;100051.41;;;18.99;64.97
9059;BME280;4564;42.034;25.834;2023-04-22T09:57:16;100044.16;;;18.93;63.26
9059;BME280;4564;42.034;25.834;2023-04-22T09:59:44;100032.16;;;18.82;61.79
9059;BME280;4564;42.034;25.834;2023-04-22T10:02:10;100038.84;;;19.03;65.56
9059;BME280;4564;42.034;25.834;2023-04-22T10:04:37;100037.41;;;19.17;67.00
9059;BME280;4564;42.034;25.834;2023-04-22T10:07:04;100027.31;;;19.06;66.48
9059;BME280;4564;42.034;25.834;2023-04-22T10:09:31;100029.91;;;19.12;65.01
9059;BME280;4564;42.034;25.834;2023-04-22T10:11:58;100027.41;;;19.27;62.46
9059;BME280;4564;42.034;25.834;2023-04-22T10:14:30;100019.50;;;19.31;61.18
9059;BME280;4564;42.034;25.834;2023-04-22T10:16:58;100020.97;;;19.22;62.60
9059;BME280;4564;42.034;25.834;2023-04-22T10:19:26;100009.66;;;19.35;63.86
9059;BME280;4564;42.034;25.834;2023-04-22T10:21:54;100005.22;;;19.67;62.98
9059;BME280;4564;42.034;25.834;2023-04-22T10:24:23;100011.09;;;19.76;61.42
9059;BME280;4564;42.034;25.834;2023-04-22T10:26:52;100004.25;;;19.79;62.51
9059;BME280;4564;42.034;25.834;2023-04-22T10:29:19;100008.88;;;19.95;59.94
9059;BME280;4564;42.034;25.834;2023-04-22T10:31:50;99994.03;;;19.96;60.65
9059;BME280;4564;42.034;25.834;2023-04-22T10:34:18;99995.41;;;20.20;60.54
9059;BME280;4564;42.034;25.834;2023-04-22T10:36:52;99999.75;;;20.33;57.60
9059;BME280;4564;42.034;25.834;2023-04-22T10:39:19;99995.13;;;20.38;58.05
9059;BME280;4564;42.034;25.834;2023-04-22T10:41:53;99996.13;;;20.54;59.15
9059;BME280;4564;42.034;25.834;2023-04-22T10:44:20;99988.28;;;21.00;57.02
9059;BME280;4564;42.034;25.834;2023-04-22T10:46:59;99999.44;;;21.47;53.17
9059;BME280;4564;42.034;25.834;2023-04-22T10:49:30;99996.53;;;21.68;54.09
9059;BME280;4564;42.034;25.834;2023-04-22T10:51:59;99994.44;;;21.86;56.20
9059;BME280;4564;42.034;25.834;2023-04-22T10:57:13;99988.00;;;21.01;57.45
9059;BME280;4564;42.034;25.834;2023-04-22T10:59:47;99995.13;;;21.24;56.65
9059;BME280;4564;42.034;25.834;2023-04-22T11:02:14;99994.13;;;21.08;57.81
9059;BME280;4564;42.034;25.834;2023-04-22T11:04:42;99993.16;;;21.19;58.60
9059;BME280;4564;42.034;25.834;2023-04-22T11:07:12;99990.66;;;21.18;55.53
9059;BME280;4564;42.034;25.834;2023-04-22T11:09:39;99988.41;;;21.52;56.92
9059;BME280;4564;42.034;25.834;2023-04-22T11:14:51;99995.34;;;21.96;52.05
9059;BME280;4564;42.034;25.834;2023-04-22T11:17:18;99998.88;;;21.50;51.32
9059;BME280;4564;42.034;25.834;2023-04-22T11:19:47;99999.41;;;21.42;50.97
9059;BME280;4564;42.034;25.834;2023-04-22T11:22:15;100003.03;;;21.47;52.21
9059;BME280;4564;42.034;25.834;2023-04-22T11:24:51;99999.44;;;21.47;52.42
9059;BME280;4564;42.034;25.834;2023-04-22T11:27:18;100000.28;;;21.47;51.14
9059;BME280;4564;42.034;25.834;2023-04-22T11:29:58;100004.13;;;21.46;51.44
9059;BME280;4564;42.034;25.834;2023-04-22T11:32:25;99996.00;;;21.29;50.07
9059;BME280;4564;42.034;25.834;2023-04-22T11:34:53;99995.69;;;20.94;50.57
9059;BME280;4564;42.034;25.834;2023-04-22T11:37:20;99990.06;;;20.84;50.00
9059;BME280;4564;42.034;25.834;2023-04-22T11:39:47;99988.72;;;20.86;50.13
9059;BME280;4564;42.034;25.834;2023-04-22T11:42:15;99990.72;;;20.96;52.24
9059;BME280;4564;42.034;25.834;2023-04-22T11:44:45;99984.72;;;21.04;51.09
9059;BME280;4564;42.034;25.834;2023-04-22T11:47:12;99984.22;;;21.12;51.41
9059;BME280;4564;42.034;25.834;2023-04-22T11:49:38;99984.88;;;21.19;49.33
9059;BME280;4564;42.034;25.834;2023-04-22T11:52:06;99983.53;;;21.27;47.79
9059;BME280;4564;42.034;25.834;2023-04-22T11:54:33;99986.16;;;21.49;47.50
9059;BME280;4564;42.034;25.834;2023-04-22T11:57:01;99980.63;;;21.44;49.76
9059;BME280;4564;42.034;25.834;2023-04-22T11:59:28;99977.94;;;21.54;51.84
9059;BME280;4564;42.034;25.834;2023-04-22T12:01:55;99979.34;;;21.61;50.47
9059;BME280;4564;42.034;25.834;2023-04-22T12:04:22;99976.59;;;21.61;51.92
9059;BME280;4564;42.034;25.834;2023-04-22T12:06:48;99972.84;;;21.83;49.61
9059;BME280;4564;42.034;25.834;2023-04-22T12:09:18;99972.66;;;21.99;51.60
9059;BME280;4564;42.034;25.834;2023-04-22T12:11:44;99967.50;;;22.18;48.22
9059;BME280;4564;42.034;25.834;2023-04-22T12:14:11;99966.75;;;22.48;45.68
9059;BME280;4564;42.034;25.834;2023-04-22T12:16:41;99967.78;;;22.27;46.01
9059;BME280;4564;42.034;25.834;2023-04-22T12:19:08;99959.69;;;22.00;44.09
9059;BME280;4564;42.034;25.834;2023-04-22T12:21:35;99973.50;;;22.00;44.81
9059;BME280;4564;42.034;25.834;2023-04-22T12:24:02;99962.19;;;22.01;46.21
9059;BME280;4564;42.034;25.834;2023-04-22T12:26:35;99964.38;;;21.99;46.16
9059;BME280;4564;42.034;25.834;2023-04-22T12:29:03;99969.34;;;21.50;46.83
9059;BME280;4564;42.034;25.834;2023-04-22T12:31:29;99973.66;;;21.83;47.96
9059;BME280;4564;42.034;25.834;2023-04-22T12:33:56;99971.34;;;22.07;48.20
9059;BME280;4564;42.034;25.834;2023-04-22T12:36:24;99976.28;;;22.05;48.13
9059;BME280;4564;42.034;25.834;2023-04-22T12:38:51;99981.56;;;22.06;49.59
9059;BME280;4564;42.034;25.834;2023-04-22T12:41:17;99976.84;;;20.86;55.47
9059;BME280;4564;42.034;25.834;2023-04-22T12:43:45;99987.31;;;19.32;67.33
9059;BME280;4564;42.034;25.834;2023-04-22T12:46:12;99999.16;;;17.85;80.31
9059;BME280;4564;42.034;25.834;2023-04-22T12:48:39;99993.06;;;17.13;79.83
9059;BME280;4564;42.034;25.834;2023-04-22T12:51:06;99985.97;;;16.71;75.58
9059;BME280;4564;42.034;25.834;2023-04-22T12:53:33;99995.97;;;16.35;83.02
9059;BME280;4564;42.034;25.834;2023-04-22T12:56:00;99990.69;;;16.04;85.42
9059;BME280;4564;42.034;25.834;2023-04-22T12:58:26;99994.09;;;15.70;89.05
9059;BME280;4564;42.034;25.834;2023-04-22T13:00:54;99994.31;;;15.25;80.28
9059;BME280;4564;42.034;25.834;2023-04-22T13:03:21;99993.81;;;15.10;83.19
9059;BME280;4564;42.034;25.834;2023-04-22T13:05:47;99993.19;;;15.08;84.23